Amboy, Iowa
Current Conditions -  °F | °C
As of 8:35 PM on Wednesday 26 Nov 2014 (Local Time) from KTNU Reporting Station
Light Snow Light Snow  
Wind Chill: -7°   Ceiling: 700
Heat Index: -2°   Visibility: 4mi
Dew Point: -3°   Wind: 10mph
Humidity: 93%   Direction: 360°N
Pressure: 30.26"   Gusts: NA
Location:  41.7317°N, 93.0122°W
Report Text: KTNU 270235Z AUTO 36009KT 4SM -SN BKN007 BKN021 OVC055 M02/M03 A3026 RMK AO2
Loading
Personal Weather Stations






























Interactive Weather Map New forecast layout! Learn more

10-Day Weather Forecast

Advertisements
Track Severe Weather on mobile